sensor_id;sensor_type;location;lat;lon;timestamp;temperature;humidity
2579;DHT22;1299;48.282;14.398;2024-02-26T00:01:52;3.20;99.90
2579;DHT22;1299;48.282;14.398;2024-02-26T00:04:21;3.00;99.90
2579;DHT22;1299;48.282;14.398;2024-02-26T00:06:48;3.20;99.90
2579;DHT22;1299;48.282;14.398;2024-02-26T00:09:18;3.30;99.90
2579;DHT22;1299;48.282;14.398;2024-02-26T00:11:47;3.40;99.90
2579;DHT22;1299;48.282;14.398;2024-02-26T00:14:14;3.40;99.90
2579;DHT22;1299;48.282;14.398;2024-02-26T00:16:41;3.50;99.90
2579;DHT22;1299;48.282;14.398;2024-02-26T00:19:08;3.40;99.90
2579;DHT22;1299;48.282;14.398;2024-02-26T00:21:35;3.50;99.90
2579;DHT22;1299;48.282;14.398;2024-02-26T00:24:08;3.50;99.90
2579;DHT22;1299;48.282;14.398;2024-02-26T00:26:36;3.50;99.90
2579;DHT22;1299;48.282;14.398;2024-02-26T00:29:04;3.50;99.90
2579;DHT22;1299;48.282;14.398;2024-02-26T00:31:32;3.50;99.90
2579;DHT22;1299;48.282;14.398;2024-02-26T00:34:01;3.50;99.90
2579;DHT22;1299;48.282;14.398;2024-02-26T00:36:28;3.40;99.90
2579;DHT22;1299;48.282;14.398;2024-02-26T00:38:56;3.60;99.90
2579;DHT22;1299;48.282;14.398;2024-02-26T00:41:25;3.60;99.90
2579;DHT22;1299;48.282;14.398;2024-02-26T00:43:54;3.60;99.90
2579;DHT22;1299;48.282;14.398;2024-02-26T00:46:22;3.50;99.90
2579;DHT22;1299;48.282;14.398;2024-02-26T00:48:49;3.20;99.90
2579;DHT22;1299;48.282;14.398;2024-02-26T00:51:16;3.00;99.90
2579;DHT22;1299;48.282;14.398;2024-02-26T00:53:45;3.30;99.90
2579;DHT22;1299;48.282;14.398;2024-02-26T00:56:17;3.40;99.90
2579;DHT22;1299;48.282;14.398;2024-02-26T00:58:45;3.30;99.90
2579;DHT22;1299;48.282;14.398;2024-02-26T01:01:15;3.20;99.90
2579;DHT22;1299;48.282;14.398;2024-02-26T01:03:42;3.20;99.90
2579;DHT22;1299;48.282;14.398;2024-02-26T01:06:09;3.20;99.90
2579;DHT22;1299;48.282;14.398;2024-02-26T01:08:36;3.10;99.90
2579;DHT22;1299;48.282;14.398;2024-02-26T01:11:04;3.20;99.90
2579;DHT22;1299;48.282;14.398;2024-02-26T01:13:33;3.30;99.90
2579;DHT22;1299;48.282;14.398;2024-02-26T01:15:59;3.20;99.90
2579;DHT22;1299;48.282;14.398;2024-02-26T01:18:29;3.20;99.90
2579;DHT22;1299;48.282;14.398;2024-02-26T01:20:58;3.20;99.90
2579;DHT22;1299;48.282;14.398;2024-02-26T01:23:29;3.20;99.90
2579;DHT22;1299;48.282;14.398;2024-02-26T01:25:56;3.10;99.90
2579;DHT22;1299;48.282;14.398;2024-02-26T01:28:23;2.70;99.90
2579;DHT22;1299;48.282;14.398;2024-02-26T01:30:50;2.30;99.90
2579;DHT22;1299;48.282;14.398;2024-02-26T01:33:18;2.40;99.90
2579;DHT22;1299;48.282;14.398;2024-02-26T01:35:49;2.70;99.90
2579;DHT22;1299;48.282;14.398;2024-02-26T01:38:16;2.60;99.90
2579;DHT22;1299;48.282;14.398;2024-02-26T01:40:43;2.70;99.90
2579;DHT22;1299;48.282;14.398;2024-02-26T01:43:10;2.40;99.90
2579;DHT22;1299;48.282;14.398;2024-02-26T01:45:39;2.20;99.90
2579;DHT22;1299;48.282;14.398;2024-02-26T01:48:07;2.20;99.90
2579;DHT22;1299;48.282;14.398;2024-02-26T01:50:34;2.40;99.90
2579;DHT22;1299;48.282;14.398;2024-02-26T01:53:11;2.50;99.90
2579;DHT22;1299;48.282;14.398;2024-02-26T01:55:39;2.70;99.90
2579;DHT22;1299;48.282;14.398;2024-02-26T01:58:06;2.80;99.90
2579;DHT22;1299;48.282;14.398;2024-02-26T02:00:35;2.80;99.90
2579;DHT22;1299;48.282;14.398;2024-02-26T02:03:03;2.80;99.90
2579;DHT22;1299;48.282;14.398;2024-02-26T02:05:30;2.80;99.90
2579;DHT22;1299;48.282;14.398;2024-02-26T02:07:58;2.60;99.90
2579;DHT22;1299;48.282;14.398;2024-02-26T02:10:27;2.50;99.90
2579;DHT22;1299;48.282;14.398;2024-02-26T02:12:54;2.50;99.90
2579;DHT22;1299;48.282;14.398;2024-02-26T02:15:21;2.50;99.90
2579;DHT22;1299;48.282;14.398;2024-02-26T02:17:50;2.60;99.90
2579;DHT22;1299;48.282;14.398;2024-02-26T02:20:17;2.40;99.90
2579;DHT22;1299;48.282;14.398;2024-02-26T02:22:46;2.40;99.90
2579;DHT22;1299;48.282;14.398;2024-02-26T02:25:13;2.50;99.90
2579;DHT22;1299;48.282;14.398;2024-02-26T02:27:41;2.60;99.90
2579;DHT22;1299;48.282;14.398;2024-02-26T02:30:09;2.60;99.90
2579;DHT22;1299;48.282;14.398;2024-02-26T02:32:40;2.50;99.90
2579;DHT22;1299;48.282;14.398;2024-02-26T02:35:07;2.50;99.90
2579;DHT22;1299;48.282;14.398;2024-02-26T02:37:34;2.50;99.90
2579;DHT22;1299;48.282;14.398;2024-02-26T02:40:06;2.60;99.90
2579;DHT22;1299;48.282;14.398;2024-02-26T02:42:33;2.60;99.90
2579;DHT22;1299;48.282;14.398;2024-02-26T02:45:01;2.50;99.90
2579;DHT22;1299;48.282;14.398;2024-02-26T02:47:29;2.30;99.90
2579;DHT22;1299;48.282;14.398;2024-02-26T02:49:56;2.30;99.90
2579;DHT22;1299;48.282;14.398;2024-02-26T02:52:31;2.30;99.90
2579;DHT22;1299;48.282;14.398;2024-02-26T02:54:58;2.30;99.90
2579;DHT22;1299;48.282;14.398;2024-02-26T02:57:26;2.10;99.90
2579;DHT22;1299;48.282;14.398;2024-02-26T02:59:53;1.70;99.90
2579;DHT22;1299;48.282;14.398;2024-02-26T03:02:21;2.00;99.90
2579;DHT22;1299;48.282;14.398;2024-02-26T03:04:51;2.10;99.90
2579;DHT22;1299;48.282;14.398;2024-02-26T03:07:19;1.90;99.90
2579;DHT22;1299;48.282;14.398;2024-02-26T03:09:46;1.90;99.90
2579;DHT22;1299;48.282;14.398;2024-02-26T03:12:14;1.90;99.90
2579;DHT22;1299;48.282;14.398;2024-02-26T03:14:43;2.00;99.90
2579;DHT22;1299;48.282;14.398;2024-02-26T03:17:10;2.00;99.90
2579;DHT22;1299;48.282;14.398;2024-02-26T03:19:37;2.00;99.90
2579;DHT22;1299;48.282;14.398;2024-02-26T03:22:04;2.00;99.90
2579;DHT22;1299;48.282;14.398;2024-02-26T03:24:31;2.10;99.90
2579;DHT22;1299;48.282;14.398;2024-02-26T03:26:59;2.00;99.90
2579;DHT22;1299;48.282;14.398;2024-02-26T03:29:26;2.00;99.90
2579;DHT22;1299;48.282;14.398;2024-02-26T03:31:57;1.90;99.90
2579;DHT22;1299;48.282;14.398;2024-02-26T03:34:24;1.80;99.90
2579;DHT22;1299;48.282;14.398;2024-02-26T03:36:53;1.70;99.90
2579;DHT22;1299;48.282;14.398;2024-02-26T03:39:20;1.80;99.90
2579;DHT22;1299;48.282;14.398;2024-02-26T03:41:48;1.90;99.90
2579;DHT22;1299;48.282;14.398;2024-02-26T03:44:15;1.50;99.90
2579;DHT22;1299;48.282;14.398;2024-02-26T03:46:42;1.50;99.90
2579;DHT22;1299;48.282;14.398;2024-02-26T03:49:10;1.00;99.90
2579;DHT22;1299;48.282;14.398;2024-02-26T03:51:39;1.20;99.90
2579;DHT22;1299;48.282;14.398;2024-02-26T03:54:06;1.40;99.90
2579;DHT22;1299;48.282;14.398;2024-02-26T03:56:35;1.30;99.90
2579;DHT22;1299;48.282;14.398;2024-02-26T03:59:07;1.40;99.90
2579;DHT22;1299;48.282;14.398;2024-02-26T04:01:34;1.50;99.90
2579;DHT22;1299;48.282;14.398;2024-02-26T04:04:01;1.40;99.90
2579;DHT22;1299;48.282;14.398;2024-02-26T04:06:30;1.30;99.90
2579;DHT22;1299;48.282;14.398;2024-02-26T04:08:58;1.40;99.90
2579;DHT22;1299;48.282;14.398;2024-02-26T04:11:25;1.40;99.90
2579;DHT22;1299;48.282;14.398;2024-02-26T04:13:52;1.50;99.90
2579;DHT22;1299;48.282;14.398;2024-02-26T04:16:21;1.60;99.90
2579;DHT22;1299;48.282;14.398;2024-02-26T04:18:48;1.40;99.90
2579;DHT22;1299;48.282;14.398;2024-02-26T04:21:16;1.20;99.90
2579;DHT22;1299;48.282;14.398;2024-02-26T04:23:45;0.90;99.90
2579;DHT22;1299;48.282;14.398;2024-02-26T04:26:12;0.90;99.90
2579;DHT22;1299;48.282;14.398;2024-02-26T04:28:39;1.00;99.90
2579;DHT22;1299;48.282;14.398;2024-02-26T04:31:06;1.00;99.90
2579;DHT22;1299;48.282;14.398;2024-02-26T04:33:34;1.10;99.90
2579;DHT22;1299;48.282;14.398;2024-02-26T04:36:04;1.30;99.90
2579;DHT22;1299;48.282;14.398;2024-02-26T04:38:32;1.50;99.90
2579;DHT22;1299;48.282;14.398;2024-02-26T04:41:01;1.50;99.90
2579;DHT22;1299;48.282;14.398;2024-02-26T04:43:28;1.50;99.90
2579;DHT22;1299;48.282;14.398;2024-02-26T04:45:56;1.50;99.90
2579;DHT22;1299;48.282;14.398;2024-02-26T04:48:23;1.60;99.90
2579;DHT22;1299;48.282;14.398;2024-02-26T04:50:52;1.70;99.90
2579;DHT22;1299;48.282;14.398;2024-02-26T04:53:20;1.70;99.90
2579;DHT22;1299;48.282;14.398;2024-02-26T04:55:47;1.70;99.90
2579;DHT22;1299;48.282;14.398;2024-02-26T04:58:16;1.80;99.90
2579;DHT22;1299;48.282;14.398;2024-02-26T05:00:45;1.70;99.90
2579;DHT22;1299;48.282;14.398;2024-02-26T05:03:12;1.70;99.90
2579;DHT22;1299;48.282;14.398;2024-02-26T05:05:42;1.80;99.90
2579;DHT22;1299;48.282;14.398;2024-02-26T05:08:17;1.70;99.90
2579;DHT22;1299;48.282;14.398;2024-02-26T05:10:45;1.60;99.90
2579;DHT22;1299;48.282;14.398;2024-02-26T05:13:12;1.60;99.90
2579;DHT22;1299;48.282;14.398;2024-02-26T05:15:42;1.60;99.90
2579;DHT22;1299;48.282;14.398;2024-02-26T05:18:10;1.60;99.90
2579;DHT22;1299;48.282;14.398;2024-02-26T05:20:38;1.40;99.90
2579;DHT22;1299;48.282;14.398;2024-02-26T05:23:05;1.70;99.90
2579;DHT22;1299;48.282;14.398;2024-02-26T05:25:32;1.60;99.90
2579;DHT22;1299;48.282;14.398;2024-02-26T05:27:59;1.60;99.90
2579;DHT22;1299;48.282;14.398;2024-02-26T05:30:26;1.50;99.90
2579;DHT22;1299;48.282;14.398;2024-02-26T05:32:56;1.40;99.90
2579;DHT22;1299;48.282;14.398;2024-02-26T05:35:26;1.30;99.90
2579;DHT22;1299;48.282;14.398;2024-02-26T05:37:59;1.30;99.90
2579;DHT22;1299;48.282;14.398;2024-02-26T05:40:26;1.20;99.90
2579;DHT22;1299;48.282;14.398;2024-02-26T05:42:53;1.30;99.90
2579;DHT22;1299;48.282;14.398;2024-02-26T05:45:20;1.30;99.90
2579;DHT22;1299;48.282;14.398;2024-02-26T05:47:47;1.40;99.90
2579;DHT22;1299;48.282;14.398;2024-02-26T05:50:19;1.40;99.90
2579;DHT22;1299;48.282;14.398;2024-02-26T05:52:46;1.60;99.90
2579;DHT22;1299;48.282;14.398;2024-02-26T05:55:13;1.50;99.90
2579;DHT22;1299;48.282;14.398;2024-02-26T05:57:46;1.50;99.90
2579;DHT22;1299;48.282;14.398;2024-02-26T06:00:15;1.50;99.90
2579;DHT22;1299;48.282;14.398;2024-02-26T06:02:42;1.50;99.90
2579;DHT22;1299;48.282;14.398;2024-02-26T06:05:10;1.50;99.90
2579;DHT22;1299;48.282;14.398;2024-02-26T06:07:40;1.50;99.90
2579;DHT22;1299;48.282;14.398;2024-02-26T06:10:07;1.40;99.90
2579;DHT22;1299;48.282;14.398;2024-02-26T06:12:35;1.40;99.90
2579;DHT22;1299;48.282;14.398;2024-02-26T06:15:04;1.30;99.90
2579;DHT22;1299;48.282;14.398;2024-02-26T06:17:31;1.10;99.90
2579;DHT22;1299;48.282;14.398;2024-02-26T06:20:00;1.00;99.90
2579;DHT22;1299;48.282;14.398;2024-02-26T06:22:27;1.10;99.90
2579;DHT22;1299;48.282;14.398;2024-02-26T06:24:55;1.10;99.90
2579;DHT22;1299;48.282;14.398;2024-02-26T06:27:23;1.20;99.90
2579;DHT22;1299;48.282;14.398;2024-02-26T06:29:50;1.30;99.90
2579;DHT22;1299;48.282;14.398;2024-02-26T06:32:17;1.40;99.90
2579;DHT22;1299;48.282;14.398;2024-02-26T06:34:44;2.20;99.90
2579;DHT22;1299;48.282;14.398;2024-02-26T06:37:11;2.90;99.90
2579;DHT22;1299;48.282;14.398;2024-02-26T06:39:38;3.40;99.90
2579;DHT22;1299;48.282;14.398;2024-02-26T06:42:12;3.10;99.90
2579;DHT22;1299;48.282;14.398;2024-02-26T06:44:39;3.70;99.90
2579;DHT22;1299;48.282;14.398;2024-02-26T06:47:06;4.30;99.90
2579;DHT22;1299;48.282;14.398;2024-02-26T06:49:33;4.10;99.90
2579;DHT22;1299;48.282;14.398;2024-02-26T06:52:00;5.50;99.90
2579;DHT22;1299;48.282;14.398;2024-02-26T06:54:33;6.70;99.90
2579;DHT22;1299;48.282;14.398;2024-02-26T06:57:01;6.40;99.90
2579;DHT22;1299;48.282;14.398;2024-02-26T06:59:30;7.00;99.90
2579;DHT22;1299;48.282;14.398;2024-02-26T07:01:57;7.10;99.90
2579;DHT22;1299;48.282;14.398;2024-02-26T07:04:24;6.40;99.90
2579;DHT22;1299;48.282;14.398;2024-02-26T07:06:52;5.00;99.90
2579;DHT22;1299;48.282;14.398;2024-02-26T07:09:19;4.00;99.90
2579;DHT22;1299;48.282;14.398;2024-02-26T07:11:46;3.40;99.90
2579;DHT22;1299;48.282;14.398;2024-02-26T07:14:13;3.10;99.90
2579;DHT22;1299;48.282;14.398;2024-02-26T07:16:42;3.40;99.90
2579;DHT22;1299;48.282;14.398;2024-02-26T07:19:09;1.90;99.90
2579;DHT22;1299;48.282;14.398;2024-02-26T07:21:37;2.00;99.90
2579;DHT22;1299;48.282;14.398;2024-02-26T07:24:06;1.90;99.90
2579;DHT22;1299;48.282;14.398;2024-02-26T07:26:36;2.50;99.90
2579;DHT22;1299;48.282;14.398;2024-02-26T07:29:03;2.80;99.90
2579;DHT22;1299;48.282;14.398;2024-02-26T07:31:39;3.00;99.90
2579;DHT22;1299;48.282;14.398;2024-02-26T07:34:07;2.40;99.90
2579;DHT22;1299;48.282;14.398;2024-02-26T07:36:36;2.20;99.90
2579;DHT22;1299;48.282;14.398;2024-02-26T07:39:03;1.70;99.90
2579;DHT22;1299;48.282;14.398;2024-02-26T07:41:31;1.10;99.90
2579;DHT22;1299;48.282;14.398;2024-02-26T07:43:57;1.70;99.90
2579;DHT22;1299;48.282;14.398;2024-02-26T07:46:24;2.10;99.90
2579;DHT22;1299;48.282;14.398;2024-02-26T07:48:53;2.10;99.90
2579;DHT22;1299;48.282;14.398;2024-02-26T07:51:22;1.90;99.90
2579;DHT22;1299;48.282;14.398;2024-02-26T07:53:53;1.70;99.90
2579;DHT22;1299;48.282;14.398;2024-02-26T07:56:24;1.90;99.90
2579;DHT22;1299;48.282;14.398;2024-02-26T07:58:53;1.90;99.90
2579;DHT22;1299;48.282;14.398;2024-02-26T08:01:20;2.10;99.90
2579;DHT22;1299;48.282;14.398;2024-02-26T08:03:47;2.50;99.90
2579;DHT22;1299;48.282;14.398;2024-02-26T08:06:14;2.80;99.90
2579;DHT22;1299;48.282;14.398;2024-02-26T08:08:42;2.80;99.90
2579;DHT22;1299;48.282;14.398;2024-02-26T08:11:14;2.90;99.90
2579;DHT22;1299;48.282;14.398;2024-02-26T08:13:43;2.70;99.90
2579;DHT22;1299;48.282;14.398;2024-02-26T08:16:10;2.80;99.90
2579;DHT22;1299;48.282;14.398;2024-02-26T08:18:39;2.90;99.90
2579;DHT22;1299;48.282;14.398;2024-02-26T08:21:07;3.20;99.90
2579;DHT22;1299;48.282;14.398;2024-02-26T08:23:35;3.50;99.90
2579;DHT22;1299;48.282;14.398;2024-02-26T08:26:04;3.70;99.90
2579;DHT22;1299;48.282;14.398;2024-02-26T08:28:36;3.60;99.90
2579;DHT22;1299;48.282;14.398;2024-02-26T08:31:03;3.70;99.90
2579;DHT22;1299;48.282;14.398;2024-02-26T08:33:31;3.70;99.90
2579;DHT22;1299;48.282;14.398;2024-02-26T08:36:07;3.40;99.90
2579;DHT22;1299;48.282;14.398;2024-02-26T08:38:33;3.50;99.90
2579;DHT22;1299;48.282;14.398;2024-02-26T08:41:01;3.50;99.90
2579;DHT22;1299;48.282;14.398;2024-02-26T08:43:37;3.50;99.90
2579;DHT22;1299;48.282;14.398;2024-02-26T08:46:08;3.20;99.90
2579;DHT22;1299;48.282;14.398;2024-02-26T08:48:36;3.30;99.90
2579;DHT22;1299;48.282;14.398;2024-02-26T08:51:05;3.10;99.90
2579;DHT22;1299;48.282;14.398;2024-02-26T08:53:33;2.90;99.90
2579;DHT22;1299;48.282;14.398;2024-02-26T08:56:00;3.40;99.90
2579;DHT22;1299;48.282;14.398;2024-02-26T08:58:27;3.80;99.90
2579;DHT22;1299;48.282;14.398;2024-02-26T09:00:55;3.70;99.90
2579;DHT22;1299;48.282;14.398;2024-02-26T09:03:22;3.90;99.90
2579;DHT22;1299;48.282;14.398;2024-02-26T09:05:59;3.60;99.90
2579;DHT22;1299;48.282;14.398;2024-02-26T09:08:28;4.30;99.90
2579;DHT22;1299;48.282;14.398;2024-02-26T09:10:55;4.70;99.90
2579;DHT22;1299;48.282;14.398;2024-02-26T09:13:22;5.00;99.90
2579;DHT22;1299;48.282;14.398;2024-02-26T09:15:59;4.90;99.90
2579;DHT22;1299;48.282;14.398;2024-02-26T09:18:26;4.60;99.90
2579;DHT22;1299;48.282;14.398;2024-02-26T09:20:55;4.70;99.90
2579;DHT22;1299;48.282;14.398;2024-02-26T09:23:29;4.90;99.90
2579;DHT22;1299;48.282;14.398;2024-02-26T09:25:56;5.30;99.90
2579;DHT22;1299;48.282;14.398;2024-02-26T09:28:23;5.60;99.90
2579;DHT22;1299;48.282;14.398;2024-02-26T09:30:50;5.80;99.90
2579;DHT22;1299;48.282;14.398;2024-02-26T09:33:18;6.00;99.90
2579;DHT22;1299;48.282;14.398;2024-02-26T09:35:45;6.10;99.90
2579;DHT22;1299;48.282;14.398;2024-02-26T09:38:12;6.30;99.90
2579;DHT22;1299;48.282;14.398;2024-02-26T09:40:40;6.40;99.90
2579;DHT22;1299;48.282;14.398;2024-02-26T09:43:14;6.40;99.90
2579;DHT22;1299;48.282;14.398;2024-02-26T09:45:49;6.80;99.90
2579;DHT22;1299;48.282;14.398;2024-02-26T09:48:19;7.00;99.90
2579;DHT22;1299;48.282;14.398;2024-02-26T09:50:46;7.20;99.90
2579;DHT22;1299;48.282;14.398;2024-02-26T09:53:17;7.50;99.90
2579;DHT22;1299;48.282;14.398;2024-02-26T09:55:47;7.80;99.90
2579;DHT22;1299;48.282;14.398;2024-02-26T09:58:16;8.20;99.90
2579;DHT22;1299;48.282;14.398;2024-02-26T10:00:51;7.80;99.90
2579;DHT22;1299;48.282;14.398;2024-02-26T10:03:27;7.30;99.90
2579;DHT22;1299;48.282;14.398;2024-02-26T10:06:04;7.60;99.90
2579;DHT22;1299;48.282;14.398;2024-02-26T10:08:40;7.30;99.90
2579;DHT22;1299;48.282;14.398;2024-02-26T10:11:07;7.60;99.90
2579;DHT22;1299;48.282;14.398;2024-02-26T10:13:35;7.40;99.90
2579;DHT22;1299;48.282;14.398;2024-02-26T10:16:03;7.60;99.90
2579;DHT22;1299;48.282;14.398;2024-02-26T10:18:46;7.40;99.90
2579;DHT22;1299;48.282;14.398;2024-02-26T10:21:16;7.70;99.90
2579;DHT22;1299;48.282;14.398;2024-02-26T10:23:43;7.60;99.90
2579;DHT22;1299;48.282;14.398;2024-02-26T10:26:12;7.20;99.90
2579;DHT22;1299;48.282;14.398;2024-02-26T10:28:39;7.10;99.90
2579;DHT22;1299;48.282;14.398;2024-02-26T10:31:08;7.20;99.90
2579;DHT22;1299;48.282;14.398;2024-02-26T10:33:37;7.80;99.90
2579;DHT22;1299;48.282;14.398;2024-02-26T10:36:08;8.10;99.90
2579;DHT22;1299;48.282;14.398;2024-02-26T10:38:37;8.00;99.90
2579;DHT22;1299;48.282;14.398;2024-02-26T10:41:06;7.90;99.90
2579;DHT22;1299;48.282;14.398;2024-02-26T10:43:42;7.90;99.90
2579;DHT22;1299;48.282;14.398;2024-02-26T10:46:09;8.00;99.90
2579;DHT22;1299;48.282;14.398;2024-02-26T10:48:37;8.30;99.90
2579;DHT22;1299;48.282;14.398;2024-02-26T10:51:09;8.40;99.90
2579;DHT22;1299;48.282;14.398;2024-02-26T10:53:41;8.20;99.90
2579;DHT22;1299;48.282;14.398;2024-02-26T10:56:11;8.20;99.90
2579;DHT22;1299;48.282;14.398;2024-02-26T10:58:46;8.40;99.90
2579;DHT22;1299;48.282;14.398;2024-02-26T11:01:14;8.70;99.90
2579;DHT22;1299;48.282;14.398;2024-02-26T11:03:43;8.90;99.90
2579;DHT22;1299;48.282;14.398;2024-02-26T11:06:12;9.10;99.90
2579;DHT22;1299;48.282;14.398;2024-02-26T11:08:39;8.90;99.90
2579;DHT22;1299;48.282;14.398;2024-02-26T11:11:12;9.10;99.90
2579;DHT22;1299;48.282;14.398;2024-02-26T11:13:42;8.40;99.90
2579;DHT22;1299;48.282;14.398;2024-02-26T11:16:13;8.50;99.90
2579;DHT22;1299;48.282;14.398;2024-02-26T11:18:49;8.60;99.90
2579;DHT22;1299;48.282;14.398;2024-02-26T11:21:20;8.70;99.90
2579;DHT22;1299;48.282;14.398;2024-02-26T11:24:02;8.60;99.90
2579;DHT22;1299;48.282;14.398;2024-02-26T11:26:30;8.60;99.90
2579;DHT22;1299;48.282;14.398;2024-02-26T11:29:00;8.90;99.90
2579;DHT22;1299;48.282;14.398;2024-02-26T11:31:28;8.70;99.90
2579;DHT22;1299;48.282;14.398;2024-02-26T11:33:56;8.70;99.90
2579;DHT22;1299;48.282;14.398;2024-02-26T11:36:25;8.90;99.90
2579;DHT22;1299;48.282;14.398;2024-02-26T11:38:55;9.10;99.90
2579;DHT22;1299;48.282;14.398;2024-02-26T11:41:22;9.10;99.90
2579;DHT22;1299;48.282;14.398;2024-02-26T11:43:53;9.50;99.90
2579;DHT22;1299;48.282;14.398;2024-02-26T11:46:29;9.40;99.90
2579;DHT22;1299;48.282;14.398;2024-02-26T11:49:32;9.50;99.90
2579;DHT22;1299;48.282;14.398;2024-02-26T11:52:06;9.40;99.90
2579;DHT22;1299;48.282;14.398;2024-02-26T11:54:43;9.20;99.90
2579;DHT22;1299;48.282;14.398;2024-02-26T11:57:27;9.50;99.90
2579;DHT22;1299;48.282;14.398;2024-02-26T11:59:55;9.40;99.90
2579;DHT22;1299;48.282;14.398;2024-02-26T12:02:43;9.60;99.90
2579;DHT22;1299;48.282;14.398;2024-02-26T12:05:13;9.40;99.90
2579;DHT22;1299;48.282;14.398;2024-02-26T12:07:47;9.40;99.90
2579;DHT22;1299;48.282;14.398;2024-02-26T12:10:25;9.30;99.90
2579;DHT22;1299;48.282;14.398;2024-02-26T12:12:55;9.40;99.90
2579;DHT22;1299;48.282;14.398;2024-02-26T12:15:34;9.90;99.90
2579;DHT22;1299;48.282;14.398;2024-02-26T12:18:10;9.80;99.90
2579;DHT22;1299;48.282;14.398;2024-02-26T12:20:37;9.80;99.90
2579;DHT22;1299;48.282;14.398;2024-02-26T12:23:06;9.80;99.90
2579;DHT22;1299;48.282;14.398;2024-02-26T12:25:53;9.70;99.90
2579;DHT22;1299;48.282;14.398;2024-02-26T12:28:21;9.90;99.90
2579;DHT22;1299;48.282;14.398;2024-02-26T12:30:48;10.10;99.90
2579;DHT22;1299;48.282;14.398;2024-02-26T12:33:15;9.80;99.90
2579;DHT22;1299;48.282;14.398;2024-02-26T12:35:42;9.80;99.90
2579;DHT22;1299;48.282;14.398;2024-02-26T12:38:12;9.80;99.90
2579;DHT22;1299;48.282;14.398;2024-02-26T12:40:39;10.10;99.90
2579;DHT22;1299;48.282;14.398;2024-02-26T12:43:07;9.50;99.90
2579;DHT22;1299;48.282;14.398;2024-02-26T12:45:39;9.30;99.90
2579;DHT22;1299;48.282;14.398;2024-02-26T12:48:07;9.20;99.90
2579;DHT22;1299;48.282;14.398;2024-02-26T12:50:34;9.00;99.90
2579;DHT22;1299;48.282;14.398;2024-02-26T12:53:01;9.00;99.90
2579;DHT22;1299;48.282;14.398;2024-02-26T12:55:30;9.40;99.90
2579;DHT22;1299;48.282;14.398;2024-02-26T12:58:00;9.50;99.90
2579;DHT22;1299;48.282;14.398;2024-02-26T13:00:28;9.30;99.90
2579;DHT22;1299;48.282;14.398;2024-02-26T13:02:56;9.30;99.90
2579;DHT22;1299;48.282;14.398;2024-02-26T13:05:24;9.60;99.90
2579;DHT22;1299;48.282;14.398;2024-02-26T13:07:53;9.90;99.90
2579;DHT22;1299;48.282;14.398;2024-02-26T13:10:20;9.50;99.90
2579;DHT22;1299;48.282;14.398;2024-02-26T13:12:49;9.70;99.90
2579;DHT22;1299;48.282;14.398;2024-02-26T13:15:18;9.60;99.90
2579;DHT22;1299;48.282;14.398;2024-02-26T13:17:47;9.40;99.90
2579;DHT22;1299;48.282;14.398;2024-02-26T13:20:25;9.40;99.90
2579;DHT22;1299;48.282;14.398;2024-02-26T13:23:00;9.60;99.90
2579;DHT22;1299;48.282;14.398;2024-02-26T13:25:29;9.50;99.90
2579;DHT22;1299;48.282;14.398;2024-02-26T13:28:07;9.60;99.90
2579;DHT22;1299;48.282;14.398;2024-02-26T13:30:35;9.70;99.90
2579;DHT22;1299;48.282;14.398;2024-02-26T13:33:07;9.80;99.90
2579;DHT22;1299;48.282;14.398;2024-02-26T13:35:35;9.80;99.90
2579;DHT22;1299;48.282;14.398;2024-02-26T13:38:06;9.60;99.90
2579;DHT22;1299;48.282;14.398;2024-02-26T13:40:33;9.60;99.90
2579;DHT22;1299;48.282;14.398;2024-02-26T13:43:04;9.60;99.90
2579;DHT22;1299;48.282;14.398;2024-02-26T13:45:35;9.90;99.90
2579;DHT22;1299;48.282;14.398;2024-02-26T13:48:04;10.10;99.90
2579;DHT22;1299;48.282;14.398;2024-02-26T13:50:33;9.80;99.90
2579;DHT22;1299;48.282;14.398;2024-02-26T13:53:01;10.00;99.90
2579;DHT22;1299;48.282;14.398;2024-02-26T13:55:30;9.90;99.90
2579;DHT22;1299;48.282;14.398;2024-02-26T13:58:01;10.00;99.90
2579;DHT22;1299;48.282;14.398;2024-02-26T14:00:28;10.20;99.90
2579;DHT22;1299;48.282;14.398;2024-02-26T14:02:58;10.50;99.90
2579;DHT22;1299;48.282;14.398;2024-02-26T14:05:25;10.50;99.90
2579;DHT22;1299;48.282;14.398;2024-02-26T14:07:53;10.50;99.90
2579;DHT22;1299;48.282;14.398;2024-02-26T14:10:21;10.80;99.90
2579;DHT22;1299;48.282;14.398;2024-02-26T14:12:48;10.70;99.90
2579;DHT22;1299;48.282;14.398;2024-02-26T14:15:21;10.70;99.90
2579;DHT22;1299;48.282;14.398;2024-02-26T14:17:50;10.90;99.90
2579;DHT22;1299;48.282;14.398;2024-02-26T14:20:23;10.90;99.90
2579;DHT22;1299;48.282;14.398;2024-02-26T14:22:50;11.00;99.90
2579;DHT22;1299;48.282;14.398;2024-02-26T14:25:18;11.00;99.90
2579;DHT22;1299;48.282;14.398;2024-02-26T14:27:46;10.70;99.90
2579;DHT22;1299;48.282;14.398;2024-02-26T14:30:14;10.50;99.90
2579;DHT22;1299;48.282;14.398;2024-02-26T14:32:41;10.60;99.90
2579;DHT22;1299;48.282;14.398;2024-02-26T14:35:08;10.30;99.90
2579;DHT22;1299;48.282;14.398;2024-02-26T14:37:38;10.50;99.90
2579;DHT22;1299;48.282;14.398;2024-02-26T14:40:07;10.70;99.90
2579;DHT22;1299;48.282;14.398;2024-02-26T14:42:35;10.60;99.90
2579;DHT22;1299;48.282;14.398;2024-02-26T14:45:07;10.60;99.90
2579;DHT22;1299;48.282;14.398;2024-02-26T14:47:39;10.90;99.90
2579;DHT22;1299;48.282;14.398;2024-02-26T14:50:08;10.90;99.90
2579;DHT22;1299;48.282;14.398;2024-02-26T14:52:38;10.90;99.90
2579;DHT22;1299;48.282;14.398;2024-02-26T14:55:05;11.30;99.90
2579;DHT22;1299;48.282;14.398;2024-02-26T14:57:33;11.70;99.90
2579;DHT22;1299;48.282;14.398;2024-02-26T15:00:01;11.90;99.90
2579;DHT22;1299;48.282;14.398;2024-02-26T15:02:32;11.90;99.90
2579;DHT22;1299;48.282;14.398;2024-02-26T15:04:59;12.00;99.90
2579;DHT22;1299;48.282;14.398;2024-02-26T15:07:26;12.10;99.90
2579;DHT22;1299;48.282;14.398;2024-02-26T15:09:54;12.20;99.90
2579;DHT22;1299;48.282;14.398;2024-02-26T15:12:27;12.20;99.90
2579;DHT22;1299;48.282;14.398;2024-02-26T15:14:54;12.20;99.90
2579;DHT22;1299;48.282;14.398;2024-02-26T15:17:22;12.00;99.90
2579;DHT22;1299;48.282;14.398;2024-02-26T15:19:50;12.10;99.90
2579;DHT22;1299;48.282;14.398;2024-02-26T15:22:17;12.20;99.90
2579;DHT22;1299;48.282;14.398;2024-02-26T15:24:45;12.00;99.90
2579;DHT22;1299;48.282;14.398;2024-02-26T15:27:14;12.10;99.90
2579;DHT22;1299;48.282;14.398;2024-02-26T15:29:42;12.10;99.90
2579;DHT22;1299;48.282;14.398;2024-02-26T15:32:10;11.90;99.90
2579;DHT22;1299;48.282;14.398;2024-02-26T15:34:40;11.90;99.90
2579;DHT22;1299;48.282;14.398;2024-02-26T15:37:08;11.80;99.90
2579;DHT22;1299;48.282;14.398;2024-02-26T15:39:44;11.80;99.90
2579;DHT22;1299;48.282;14.398;2024-02-26T15:42:20;11.80;99.90
2579;DHT22;1299;48.282;14.398;2024-02-26T15:44:49;11.70;99.90
2579;DHT22;1299;48.282;14.398;2024-02-26T15:47:16;11.70;99.90
2579;DHT22;1299;48.282;14.398;2024-02-26T15:49:43;11.70;99.90
2579;DHT22;1299;48.282;14.398;2024-02-26T15:52:18;11.70;99.90
2579;DHT22;1299;48.282;14.398;2024-02-26T15:54:46;11.70;99.90
2579;DHT22;1299;48.282;14.398;2024-02-26T15:57:20;11.60;99.90
2579;DHT22;1299;48.282;14.398;2024-02-26T15:59:47;11.60;99.90
2579;DHT22;1299;48.282;14.398;2024-02-26T16:02:22;11.50;99.90
2579;DHT22;1299;48.282;14.398;2024-02-26T16:04:50;11.60;99.90
2579;DHT22;1299;48.282;14.398;2024-02-26T16:07:29;11.50;99.90
2579;DHT22;1299;48.282;14.398;2024-02-26T16:09:58;11.40;99.90
2579;DHT22;1299;48.282;14.398;2024-02-26T16:12:32;11.40;99.90